Triumph, Illinois
Current Conditions -  °F | °C
As of 3:35 PM on Wednesday 17 Dec 2014 (Local Time) from KVYS Reporting Station
Overcast Overcast  
Wind Chill: 20°   Ceiling: 2400
Heat Index: 27°   Visibility: 10mi
Dew Point: 20°   Wind: 7mph
Humidity: 74%   Direction: 290°WNW
Pressure: 30.27"   Gusts: NA
Location:  41.5°N, 89.02°W
Report Text: KVYS 172135Z AUTO 29006KT 10SM OVC024 M03/M07 A3027 RMK AO2 T10271067
Loading
Personal Weather Stations






























Interactive Weather Map New forecast layout! Learn more

10-Day Weather Forecast

Advertisements
Track Severe Weather on mobile